createdAt,value
2017-08-28T00:00:19.732Z,0.00
2017-08-28T00:01:19.714Z,0.00
2017-08-28T00:02:19.795Z,0.00
2017-08-28T00:03:20.406Z,0.00
2017-08-28T00:04:19.771Z,0.00
2017-08-28T00:05:20.303Z,0.00
2017-08-28T00:06:20.343Z,0.00
2017-08-28T00:07:21.180Z,0.00
2017-08-28T00:08:19.851Z,0.00
2017-08-28T00:09:19.800Z,0.00
2017-08-28T00:10:20.697Z,0.00
2017-08-28T00:11:19.706Z,0.00
2017-08-28T00:12:19.882Z,0.00
2017-08-28T00:13:19.704Z,0.00
2017-08-28T00:14:19.726Z,0.00
2017-08-28T00:15:19.749Z,0.00
2017-08-28T00:16:20.214Z,0.00
2017-08-28T00:17:19.840Z,0.00
2017-08-28T00:18:19.762Z,0.00
2017-08-28T00:19:19.709Z,0.00
2017-08-28T00:20:20.702Z,0.00
2017-08-28T00:21:20.211Z,0.00
2017-08-28T00:22:19.780Z,0.00
2017-08-28T00:23:19.794Z,0.00
2017-08-28T00:24:19.765Z,0.00
2017-08-28T00:25:19.764Z,0.00
2017-08-28T00:26:20.215Z,0.00
2017-08-28T00:27:20.004Z,0.00
2017-08-28T00:28:19.679Z,0.00
2017-08-28T00:29:19.699Z,0.00
2017-08-28T00:30:19.728Z,0.00
2017-08-28T00:31:19.717Z,0.00
2017-08-28T00:32:19.853Z,0.00
2017-08-28T00:33:19.868Z,0.00
2017-08-28T00:34:19.706Z,0.00
2017-08-28T00:35:19.784Z,0.00
2017-08-28T00:36:19.777Z,0.00
2017-08-28T00:37:20.252Z,0.00
2017-08-28T00:38:19.797Z,0.00
2017-08-28T00:39:19.728Z,0.00
2017-08-28T00:40:19.882Z,0.00
2017-08-28T00:41:19.683Z,0.00
2017-08-28T00:42:19.704Z,0.00
2017-08-28T00:43:19.837Z,0.00
2017-08-28T00:44:20.240Z,0.00
2017-08-28T00:45:19.735Z,0.00
2017-08-28T00:46:19.793Z,0.00
2017-08-28T00:47:19.711Z,0.00
2017-08-28T00:48:19.758Z,0.00
2017-08-28T00:49:19.735Z,0.00
2017-08-28T00:50:19.726Z,0.00
2017-08-28T00:51:19.686Z,0.00
2017-08-28T00:52:19.780Z,0.00
2017-08-28T00:53:19.812Z,0.00
2017-08-28T00:54:19.697Z,0.00
2017-08-28T00:55:19.767Z,0.00
2017-08-28T00:56:19.750Z,0.00
2017-08-28T00:57:19.688Z,0.00
2017-08-28T00:58:19.738Z,0.00
2017-08-28T00:59:19.743Z,0.00
2017-08-28T01:00:19.796Z,0.00
2017-08-28T01:01:19.695Z,0.00
2017-08-28T01:02:19.794Z,0.00
2017-08-28T01:03:20.877Z,0.00
2017-08-28T01:04:19.718Z,0.00
2017-08-28T01:05:19.857Z,0.00
2017-08-28T01:06:19.688Z,0.00
2017-08-28T01:07:19.689Z,0.00
2017-08-28T01:08:19.810Z,0.00
2017-08-28T01:09:20.279Z,0.00
2017-08-28T01:10:19.799Z,0.00
2017-08-28T01:11:19.765Z,0.00
2017-08-28T01:12:19.761Z,0.00
2017-08-28T01:13:19.782Z,0.00
2017-08-28T01:14:19.691Z,0.00
2017-08-28T01:15:20.294Z,0.00
2017-08-28T01:16:19.715Z,0.00
2017-08-28T01:17:20.489Z,0.00
2017-08-28T01:18:19.709Z,0.00
2017-08-28T01:19:19.744Z,0.00
2017-08-28T01:20:19.757Z,0.00
2017-08-28T01:21:19.735Z,0.00
2017-08-28T01:22:20.308Z,0.00
2017-08-28T01:23:20.332Z,0.00
2017-08-28T01:24:19.752Z,0.00
2017-08-28T01:25:19.711Z,0.00
2017-08-28T01:26:19.757Z,0.00
2017-08-28T01:27:20.456Z,0.00
2017-08-28T01:28:21.308Z,0.00
2017-08-28T01:29:19.806Z,0.00
2017-08-28T01:30:19.674Z,0.00
2017-08-28T01:31:19.723Z,0.00
2017-08-28T01:32:20.315Z,0.00
2017-08-28T01:33:20.316Z,0.00
2017-08-28T01:34:20.550Z,0.00
2017-08-28T01:35:20.438Z,0.00
2017-08-28T01:36:20.327Z,0.00
2017-08-28T01:37:19.703Z,0.00
2017-08-28T01:38:19.756Z,0.00
2017-08-28T01:39:19.756Z,0.00
2017-08-28T01:40:19.737Z,0.00
2017-08-28T01:41:19.731Z,0.00
2017-08-28T01:42:19.765Z,0.00
2017-08-28T01:43:20.336Z,0.00
2017-08-28T01:44:19.783Z,0.00
2017-08-28T01:45:20.487Z,0.00
2017-08-28T01:46:19.661Z,0.00
2017-08-28T01:47:19.737Z,0.00
2017-08-28T01:48:19.730Z,0.00
2017-08-28T01:49:19.744Z,0.00
2017-08-28T01:50:19.738Z,0.00
2017-08-28T01:51:19.843Z,0.00
2017-08-28T01:52:19.664Z,0.00
2017-08-28T01:53:19.686Z,0.00
2017-08-28T01:54:19.779Z,0.00
2017-08-28T01:55:19.716Z,0.00
2017-08-28T01:56:19.783Z,0.00
2017-08-28T01:57:19.757Z,0.00
2017-08-28T01:58:20.857Z,0.00
2017-08-28T01:59:20.367Z,0.00
2017-08-28T02:00:20.362Z,0.00
2017-08-28T02:01:19.761Z,0.00
2017-08-28T02:02:21.380Z,0.00
2017-08-28T02:03:21.364Z,0.00
2017-08-28T02:04:19.741Z,0.00
2017-08-28T02:05:19.665Z,0.00
2017-08-28T02:06:20.370Z,0.00
2017-08-28T02:07:20.376Z,0.00
2017-08-28T02:08:20.487Z,0.00
2017-08-28T02:09:19.647Z,0.00
2017-08-28T02:10:20.447Z,0.00
2017-08-28T02:11:19.728Z,0.00
2017-08-28T02:12:20.503Z,0.00
2017-08-28T02:13:19.747Z,0.00
2017-08-28T02:14:20.593Z,0.00
2017-08-28T02:15:20.553Z,0.00
2017-08-28T02:16:19.687Z,0.00
2017-08-28T02:17:20.384Z,0.00
2017-08-28T02:18:19.707Z,0.00
2017-08-28T02:19:19.676Z,0.00
2017-08-28T02:20:19.791Z,0.00
2017-08-28T02:21:19.682Z,0.00
2017-08-28T02:22:19.751Z,0.00
2017-08-28T02:23:21.895Z,0.00
2017-08-28T02:24:19.709Z,0.00
2017-08-28T02:25:19.752Z,0.00
2017-08-28T02:26:19.743Z,0.00
2017-08-28T02:27:20.404Z,0.00
2017-08-28T02:28:19.675Z,0.00
2017-08-28T02:29:19.693Z,0.00
2017-08-28T02:30:19.727Z,0.00
2017-08-28T02:31:19.659Z,0.00
2017-08-28T02:32:19.606Z,0.00
2017-08-28T02:33:19.899Z,0.00
2017-08-28T02:34:19.589Z,0.00
2017-08-28T02:35:19.709Z,0.00
2017-08-28T02:36:19.814Z,0.00
2017-08-28T02:37:19.660Z,0.00
2017-08-28T02:38:19.725Z,0.00
2017-08-28T02:39:19.701Z,0.00
2017-08-28T02:40:19.707Z,0.00
2017-08-28T02:41:20.500Z,0.00
2017-08-28T02:42:19.684Z,0.00
2017-08-28T02:43:19.679Z,0.00
2017-08-28T02:44:19.620Z,0.00
2017-08-28T02:45:19.655Z,0.00
2017-08-28T02:46:20.515Z,0.00
2017-08-28T02:47:19.647Z,0.00
2017-08-28T02:48:19.690Z,0.00
2017-08-28T02:49:19.668Z,0.00
2017-08-28T02:50:19.672Z,0.00
2017-08-28T02:51:21.170Z,0.00
2017-08-28T02:52:19.677Z,0.00
2017-08-28T02:53:19.692Z,0.00
2017-08-28T02:54:20.474Z,0.00
2017-08-28T02:55:19.614Z,0.00
2017-08-28T02:56:19.729Z,0.00
2017-08-28T02:57:21.452Z,0.00
2017-08-28T02:58:20.460Z,0.00
2017-08-28T02:59:21.567Z,0.00
2017-08-28T03:00:20.451Z,0.00
2017-08-28T03:01:20.456Z,0.00
2017-08-28T03:02:19.663Z,0.00
2017-08-28T03:03:19.611Z,0.00
2017-08-28T03:04:19.708Z,0.00
2017-08-28T03:05:20.546Z,0.00
2017-08-28T03:06:19.688Z,0.00
2017-08-28T03:07:19.723Z,0.00
2017-08-28T03:08:19.656Z,0.00
2017-08-28T03:09:19.657Z,0.00
2017-08-28T03:10:19.706Z,0.00
2017-08-28T03:11:19.738Z,0.00
2017-08-28T03:12:20.469Z,0.00
2017-08-28T03:13:20.642Z,0.00
2017-08-28T03:14:19.654Z,0.00
2017-08-28T03:15:19.658Z,0.00
2017-08-28T03:16:20.213Z,0.00
2017-08-28T03:17:19.719Z,0.00
2017-08-28T03:18:19.584Z,0.00
2017-08-28T03:19:19.747Z,0.00
2017-08-28T03:20:19.582Z,0.00
2017-08-28T03:21:21.488Z,0.00
2017-08-28T03:22:19.641Z,0.00
2017-08-28T03:23:19.718Z,0.00
2017-08-28T03:24:19.666Z,0.00
2017-08-28T03:25:19.823Z,0.00
2017-08-28T03:26:19.796Z,0.00
2017-08-28T03:27:20.496Z,0.00
2017-08-28T03:28:19.681Z,0.00
2017-08-28T03:29:21.126Z,0.00
2017-08-28T03:30:20.707Z,0.00
2017-08-28T03:31:20.659Z,0.00
2017-08-28T03:32:19.727Z,0.00
2017-08-28T03:33:19.619Z,0.00
2017-08-28T03:34:19.640Z,0.00
2017-08-28T03:35:19.655Z,0.00
2017-08-28T03:36:19.688Z,0.00
2017-08-28T03:37:19.758Z,0.00
2017-08-28T03:38:20.636Z,0.00
2017-08-28T03:39:20.521Z,0.00
2017-08-28T03:40:19.608Z,0.00
2017-08-28T03:41:20.645Z,0.00
2017-08-28T03:42:19.733Z,0.00
2017-08-28T03:43:19.608Z,0.00
2017-08-28T03:44:20.047Z,0.00
2017-08-28T03:45:19.630Z,0.00
2017-08-28T03:46:20.023Z,0.00
2017-08-28T03:47:19.655Z,0.00
2017-08-28T03:48:19.655Z,0.00
2017-08-28T03:49:21.031Z,0.00
2017-08-28T03:50:20.028Z,0.00
2017-08-28T03:51:19.702Z,0.00
2017-08-28T03:52:19.651Z,0.00
2017-08-28T03:53:19.658Z,0.00
2017-08-28T03:54:20.540Z,0.00
2017-08-28T03:55:19.626Z,0.00
2017-08-28T03:56:19.757Z,0.00
2017-08-28T03:57:19.726Z,0.00
2017-08-28T03:58:19.744Z,0.00
2017-08-28T03:59:19.640Z,0.00
2017-08-28T04:00:20.176Z,0.00
2017-08-28T04:01:19.644Z,0.00
2017-08-28T04:02:19.670Z,0.00
2017-08-28T04:03:19.664Z,0.00
2017-08-28T04:04:19.627Z,0.00
2017-08-28T04:05:20.052Z,0.00
2017-08-28T04:06:19.656Z,0.00
2017-08-28T04:07:20.223Z,0.00
2017-08-28T04:08:20.555Z,0.00
2017-08-28T04:09:19.741Z,0.00
2017-08-28T04:10:19.666Z,0.00
2017-08-28T04:11:19.631Z,0.00
2017-08-28T04:12:21.067Z,0.00
2017-08-28T04:13:19.704Z,0.00
2017-08-28T04:14:19.635Z,0.00
2017-08-28T04:15:19.627Z,0.00
2017-08-28T04:16:19.727Z,0.00
2017-08-28T04:17:19.643Z,0.00
2017-08-28T04:18:19.656Z,0.00
2017-08-28T04:19:19.662Z,0.00
2017-08-28T04:20:19.626Z,0.00
2017-08-28T04:21:19.576Z,0.00
2017-08-28T04:22:19.638Z,0.00
2017-08-28T04:23:20.144Z,0.00
2017-08-28T04:24:19.572Z,0.00
2017-08-28T04:25:19.659Z,0.00
2017-08-28T04:26:19.714Z,5.62
2017-08-28T04:27:19.656Z,5.62
2017-08-28T04:28:19.649Z,5.62
2017-08-28T04:29:19.710Z,5.62
2017-08-28T04:30:19.622Z,5.62
2017-08-28T04:31:19.694Z,5.62
2017-08-28T04:32:19.641Z,11.25
2017-08-28T04:33:20.095Z,11.25
2017-08-28T04:34:20.128Z,11.25
2017-08-28T04:35:20.103Z,11.25
2017-08-28T04:36:20.101Z,16.87
2017-08-28T04:37:19.582Z,16.87
2017-08-28T04:38:19.679Z,16.87
2017-08-28T04:39:19.564Z,16.87
2017-08-28T04:40:19.642Z,22.50
2017-08-28T04:41:20.107Z,22.50
2017-08-28T04:42:19.630Z,22.50
2017-08-28T04:43:19.696Z,28.12
2017-08-28T04:44:19.652Z,28.12
2017-08-28T04:45:19.637Z,33.75
2017-08-28T04:46:19.655Z,33.75
2017-08-28T04:47:19.640Z,33.75
2017-08-28T04:48:19.593Z,39.37
2017-08-28T04:49:20.401Z,45.00
2017-08-28T04:50:20.310Z,45.00
2017-08-28T04:51:19.717Z,50.62
2017-08-28T04:52:20.123Z,56.25
2017-08-28T04:53:19.640Z,61.87
2017-08-28T04:54:20.144Z,67.50
2017-08-28T04:55:19.614Z,67.50
2017-08-28T04:56:20.259Z,73.12
2017-08-28T04:57:19.660Z,78.75
2017-08-28T04:58:19.679Z,78.75
2017-08-28T04:59:19.644Z,84.37
2017-08-28T05:00:19.589Z,90.00
2017-08-28T05:01:19.668Z,90.00
2017-08-28T05:02:19.600Z,90.00
2017-08-28T05:03:19.682Z,90.00
2017-08-28T05:04:20.644Z,90.00
2017-08-28T05:05:20.645Z,90.00
2017-08-28T05:06:19.578Z,90.00
2017-08-28T05:07:19.682Z,95.62
2017-08-28T05:08:19.586Z,95.62
2017-08-28T05:09:19.697Z,95.62
2017-08-28T05:10:20.287Z,95.62
2017-08-28T05:11:19.647Z,95.62
2017-08-28T05:12:20.154Z,90.00
2017-08-28T05:13:19.611Z,95.62
2017-08-28T05:14:19.854Z,95.62
2017-08-28T05:15:19.639Z,95.62
2017-08-28T05:16:19.649Z,95.62
2017-08-28T05:17:19.668Z,95.62
2017-08-28T05:18:19.554Z,95.62
2017-08-28T05:19:19.689Z,101.25
2017-08-28T05:20:19.572Z,101.25
2017-08-28T05:21:19.702Z,101.25
2017-08-28T05:22:19.591Z,106.87
2017-08-28T05:23:19.618Z,106.87
2017-08-28T05:24:19.619Z,112.50
2017-08-28T05:25:19.653Z,112.50
2017-08-28T05:26:19.738Z,112.50
2017-08-28T05:27:20.178Z,118.12
2017-08-28T05:28:19.614Z,118.12
2017-08-28T05:29:19.609Z,118.12
2017-08-28T05:30:19.997Z,123.75
2017-08-28T05:31:20.189Z,123.75
2017-08-28T05:32:19.566Z,123.75
2017-08-28T05:33:19.582Z,129.37
2017-08-28T05:34:19.585Z,129.37
2017-08-28T05:35:19.675Z,129.37
2017-08-28T05:36:20.197Z,129.37
2017-08-28T05:37:19.681Z,129.37
2017-08-28T05:38:19.644Z,135.00
2017-08-28T05:39:20.343Z,135.00
2017-08-28T05:40:19.912Z,135.00
2017-08-28T05:41:19.613Z,140.62
2017-08-28T05:42:19.545Z,140.62
2017-08-28T05:43:19.589Z,140.62
2017-08-28T05:44:19.555Z,146.25
2017-08-28T05:45:20.466Z,146.25
2017-08-28T05:46:20.207Z,146.25
2017-08-28T05:47:20.485Z,146.25
2017-08-28T05:48:20.217Z,146.25
2017-08-28T05:49:19.580Z,151.87
2017-08-28T05:50:20.414Z,151.87
2017-08-28T05:51:19.665Z,151.87
2017-08-28T05:52:19.573Z,151.87
2017-08-28T05:53:20.219Z,157.50
2017-08-28T05:54:19.557Z,157.50
2017-08-28T05:55:19.687Z,157.50
2017-08-28T05:56:19.667Z,157.50
2017-08-28T05:57:19.560Z,163.12
2017-08-28T05:58:20.236Z,163.12
2017-08-28T05:59:19.585Z,163.12
2017-08-28T06:00:19.623Z,163.12
2017-08-28T06:01:19.596Z,168.75
2017-08-28T06:02:20.234Z,168.75
2017-08-28T06:03:20.245Z,168.75
2017-08-28T06:04:19.587Z,168.75
2017-08-28T06:05:19.658Z,168.75
2017-08-28T06:06:19.639Z,174.37
2017-08-28T06:07:19.633Z,174.37
2017-08-28T06:08:20.332Z,174.37
2017-08-28T06:09:20.519Z,180.00
2017-08-28T06:10:19.718Z,180.00
2017-08-28T06:11:20.247Z,180.00
2017-08-28T06:12:19.538Z,180.00
2017-08-28T06:13:19.517Z,185.62
2017-08-28T06:14:20.440Z,185.62
2017-08-28T06:15:19.695Z,185.62
2017-08-28T06:16:21.259Z,191.25
2017-08-28T06:17:20.256Z,191.25
2017-08-28T06:18:19.533Z,191.25
2017-08-28T06:19:19.605Z,191.25
2017-08-28T06:20:19.569Z,191.25
2017-08-28T06:21:19.738Z,196.87
2017-08-28T06:22:19.546Z,196.87
2017-08-28T06:23:19.699Z,196.87
2017-08-28T06:24:20.345Z,196.87
2017-08-28T06:25:19.597Z,202.50
2017-08-28T06:26:19.592Z,202.50
2017-08-28T06:27:19.664Z,202.50
2017-08-28T06:28:19.571Z,202.50
2017-08-28T06:29:20.590Z,208.12
2017-08-28T06:30:19.609Z,208.12
2017-08-28T06:31:20.304Z,208.12
2017-08-28T06:32:20.438Z,208.12
2017-08-28T06:33:19.568Z,213.75
2017-08-28T06:34:19.594Z,213.75
2017-08-28T06:35:20.287Z,213.75
2017-08-28T06:36:20.286Z,213.75
2017-08-28T06:37:20.292Z,213.75
2017-08-28T06:38:19.630Z,213.75
2017-08-28T06:39:19.549Z,213.75
2017-08-28T06:40:19.573Z,219.37
2017-08-28T06:41:19.567Z,219.37
2017-08-28T06:42:19.611Z,219.37
2017-08-28T06:43:19.555Z,219.37
2017-08-28T06:44:20.416Z,219.37
2017-08-28T06:45:19.566Z,219.37
2017-08-28T06:46:20.808Z,219.37
2017-08-28T06:47:20.338Z,219.37
2017-08-28T06:48:19.555Z,225.00
2017-08-28T06:49:20.313Z,225.00
2017-08-28T06:50:20.485Z,225.00
2017-08-28T06:51:19.639Z,225.00
2017-08-28T06:52:19.623Z,219.37
2017-08-28T06:53:19.601Z,225.00
2017-08-28T06:54:19.611Z,219.37
2017-08-28T06:55:19.640Z,219.37
2017-08-28T06:56:20.327Z,225.00
2017-08-28T06:57:20.102Z,225.00
2017-08-28T06:58:20.348Z,225.00
2017-08-28T06:59:20.323Z,230.62
2017-08-28T07:00:20.336Z,225.00
2017-08-28T07:01:19.569Z,225.00
2017-08-28T07:02:19.676Z,225.00
2017-08-28T07:03:19.536Z,230.62
2017-08-28T07:04:19.674Z,225.00
2017-08-28T07:05:19.613Z,225.00
2017-08-28T07:06:19.531Z,230.62
2017-08-28T07:07:20.582Z,236.25
2017-08-28T07:08:19.552Z,230.62
2017-08-28T07:09:21.342Z,230.62
2017-08-28T07:10:19.583Z,230.62
2017-08-28T07:11:19.646Z,236.25
2017-08-28T07:12:19.604Z,230.62
2017-08-28T07:13:19.717Z,236.25
2017-08-28T07:14:19.602Z,236.25
2017-08-28T07:15:19.565Z,236.25
2017-08-28T07:16:20.349Z,236.25
2017-08-28T07:17:19.584Z,236.25
2017-08-28T07:18:19.578Z,236.25
2017-08-28T07:19:19.594Z,236.25
2017-08-28T07:20:20.380Z,236.25
2017-08-28T07:21:19.608Z,236.25
2017-08-28T07:22:20.548Z,236.25
2017-08-28T07:23:20.874Z,241.87
2017-08-28T07:24:19.632Z,241.87
2017-08-28T07:25:19.469Z,241.87
2017-08-28T07:26:19.579Z,241.87
2017-08-28T07:27:19.624Z,241.87
2017-08-28T07:28:19.692Z,241.87
2017-08-28T07:29:24.108Z,241.87
2017-08-28T07:30:20.378Z,241.87
2017-08-28T07:31:19.601Z,241.87
2017-08-28T07:32:19.564Z,241.87
2017-08-28T07:33:19.621Z,241.87
2017-08-28T07:34:19.598Z,247.50
2017-08-28T07:35:19.523Z,247.50
2017-08-28T07:36:19.551Z,247.50
2017-08-28T07:37:19.528Z,247.50
2017-08-28T07:38:20.387Z,247.50
2017-08-28T07:39:19.751Z,247.50
2017-08-28T07:40:19.516Z,247.50
2017-08-28T07:41:19.504Z,247.50
2017-08-28T07:42:20.418Z,247.50
2017-08-28T07:43:20.580Z,247.50
2017-08-28T07:44:19.578Z,247.50
2017-08-28T07:45:19.620Z,247.50
2017-08-28T07:46:19.560Z,247.50
2017-08-28T07:47:20.473Z,247.50
2017-08-28T07:48:20.916Z,247.50
2017-08-28T07:49:19.545Z,247.50
2017-08-28T07:50:19.514Z,253.12
2017-08-28T07:51:19.501Z,253.12
2017-08-28T07:52:19.538Z,253.12
2017-08-28T07:53:19.625Z,253.12
2017-08-28T07:54:20.412Z,253.12
2017-08-28T07:55:19.524Z,253.12
2017-08-28T07:56:19.532Z,253.12
2017-08-28T07:57:20.478Z,258.75
2017-08-28T07:58:20.418Z,258.75
2017-08-28T07:59:19.593Z,258.75
2017-08-28T08:00:19.533Z,258.75
2017-08-28T08:01:20.934Z,258.75
2017-08-28T08:02:19.560Z,258.75
2017-08-28T08:03:19.597Z,258.75
2017-08-28T08:04:19.929Z,258.75
2017-08-28T08:05:19.532Z,258.75
2017-08-28T08:06:19.507Z,258.75
2017-08-28T08:07:19.529Z,264.37
2017-08-28T08:08:19.565Z,264.37
2017-08-28T08:09:19.589Z,270.00
2017-08-28T08:10:19.480Z,270.00
2017-08-28T08:11:19.602Z,275.62
2017-08-28T08:12:19.558Z,286.87
2017-08-28T08:13:19.580Z,286.87
2017-08-28T08:14:19.588Z,292.50
2017-08-28T08:15:19.947Z,286.87
2017-08-28T08:16:19.977Z,292.50
2017-08-28T08:17:20.037Z,286.87
2017-08-28T08:18:19.520Z,281.25
2017-08-28T08:19:20.452Z,281.25
2017-08-28T08:20:19.957Z,275.62
2017-08-28T08:21:20.140Z,275.62
2017-08-28T08:22:19.503Z,275.62
2017-08-28T08:23:19.506Z,275.62
2017-08-28T08:24:19.644Z,275.62
2017-08-28T08:25:19.494Z,281.25
2017-08-28T08:26:19.612Z,281.25
2017-08-28T08:27:19.618Z,281.25
2017-08-28T08:28:20.175Z,281.25
2017-08-28T08:29:19.554Z,281.25
2017-08-28T08:30:19.501Z,281.25
2017-08-28T08:31:19.514Z,281.25
2017-08-28T08:32:19.527Z,281.25
2017-08-28T08:33:19.495Z,286.87
2017-08-28T08:34:19.584Z,286.87
2017-08-28T08:35:19.509Z,292.50
2017-08-28T08:36:20.069Z,298.12
2017-08-28T08:37:19.504Z,298.12
2017-08-28T08:38:19.484Z,303.75
2017-08-28T08:39:19.988Z,303.75
2017-08-28T08:40:19.538Z,309.37
2017-08-28T08:41:20.509Z,309.37
2017-08-28T08:42:20.016Z,309.37
2017-08-28T08:43:19.540Z,309.37
2017-08-28T08:44:19.993Z,309.37
2017-08-28T08:45:19.548Z,309.37
2017-08-28T08:46:20.496Z,315.00
2017-08-28T08:47:20.068Z,315.00
2017-08-28T08:48:19.505Z,315.00
2017-08-28T08:49:20.005Z,320.62
2017-08-28T08:50:19.569Z,320.62
2017-08-28T08:51:19.535Z,320.62
2017-08-28T08:52:19.522Z,320.62
2017-08-28T08:53:19.458Z,320.62
2017-08-28T08:54:19.526Z,320.62
2017-08-28T08:55:19.556Z,326.25
2017-08-28T08:56:19.477Z,326.25
2017-08-28T08:57:19.565Z,326.25
2017-08-28T08:58:20.142Z,320.62
2017-08-28T08:59:20.131Z,320.62
2017-08-28T09:00:19.607Z,326.25
2017-08-28T09:01:19.529Z,326.25
2017-08-28T09:02:20.371Z,326.25
2017-08-28T09:03:19.512Z,326.25
2017-08-28T09:04:19.442Z,331.87
2017-08-28T09:05:19.494Z,331.87
2017-08-28T09:06:20.166Z,331.87
2017-08-28T09:07:19.526Z,331.87
2017-08-28T09:08:20.199Z,337.50
2017-08-28T09:09:19.500Z,337.50
2017-08-28T09:10:19.640Z,337.50
2017-08-28T09:11:19.757Z,331.87
2017-08-28T09:12:20.135Z,337.50
2017-08-28T09:13:19.518Z,337.50
2017-08-28T09:14:20.151Z,337.50
2017-08-28T09:15:19.482Z,337.50
2017-08-28T09:16:20.049Z,337.50
2017-08-28T09:17:19.540Z,337.50
2017-08-28T09:18:19.446Z,343.12
2017-08-28T09:19:19.565Z,343.12
2017-08-28T09:20:20.056Z,343.12
2017-08-28T09:21:19.834Z,343.12
2017-08-28T09:22:19.478Z,343.12
2017-08-28T09:23:19.558Z,343.12
2017-08-28T09:24:19.538Z,337.50
2017-08-28T09:25:19.525Z,343.12
2017-08-28T09:26:19.499Z,343.12
2017-08-28T09:27:19.573Z,348.75
2017-08-28T09:28:19.456Z,348.75
2017-08-28T09:29:19.579Z,348.75
2017-08-28T09:30:20.221Z,348.75
2017-08-28T09:31:19.553Z,348.75
2017-08-28T09:32:19.472Z,348.75
2017-08-28T09:33:21.076Z,348.75
2017-08-28T09:34:20.209Z,348.75
2017-08-28T09:35:19.585Z,348.75
2017-08-28T09:36:19.532Z,354.37
2017-08-28T09:37:20.083Z,354.37
2017-08-28T09:38:19.500Z,354.37
2017-08-28T09:39:19.451Z,354.37
2017-08-28T09:40:19.498Z,360.00
2017-08-28T09:41:20.093Z,360.00
2017-08-28T09:42:19.441Z,360.00
2017-08-28T09:43:19.557Z,360.00
2017-08-28T09:44:19.472Z,360.00
2017-08-28T09:45:20.100Z,360.00
2017-08-28T09:46:19.516Z,360.00
2017-08-28T09:47:20.296Z,360.00
2017-08-28T09:48:19.549Z,360.00
2017-08-28T09:49:19.512Z,365.62
2017-08-28T09:50:19.470Z,365.62
2017-08-28T09:51:19.534Z,371.25
2017-08-28T09:52:19.860Z,371.25
2017-08-28T09:53:19.563Z,371.25
2017-08-28T09:54:20.212Z,376.87
2017-08-28T09:55:19.459Z,371.25
2017-08-28T09:56:19.540Z,371.25
2017-08-28T09:57:19.469Z,371.25
2017-08-28T09:58:19.567Z,371.25
2017-08-28T09:59:19.474Z,376.87
2017-08-28T10:00:20.129Z,376.87
2017-08-28T10:01:19.504Z,376.87
2017-08-28T10:02:19.528Z,376.87
2017-08-28T10:03:19.453Z,382.50
2017-08-28T10:04:20.129Z,382.50
2017-08-28T10:05:19.439Z,382.50
2017-08-28T10:06:20.135Z,382.50
2017-08-28T10:07:19.852Z,388.12
2017-08-28T10:08:21.138Z,388.12
2017-08-28T10:09:19.457Z,388.12
2017-08-28T10:10:19.475Z,382.50
2017-08-28T10:11:19.488Z,382.50
2017-08-28T10:12:19.507Z,388.12
2017-08-28T10:13:20.144Z,382.50
2017-08-28T10:14:19.494Z,388.12
2017-08-28T10:15:19.529Z,388.12
2017-08-28T10:16:20.159Z,393.75
2017-08-28T10:17:20.166Z,399.37
2017-08-28T10:18:19.433Z,405.00
2017-08-28T10:19:20.343Z,410.62
2017-08-28T10:20:20.384Z,410.62
2017-08-28T10:21:19.539Z,410.62
2017-08-28T10:22:19.429Z,416.25
2017-08-28T10:23:19.465Z,416.25
2017-08-28T10:24:20.793Z,416.25
2017-08-28T10:25:20.300Z,416.25
2017-08-28T10:26:19.459Z,416.25
2017-08-28T10:27:19.467Z,416.25
2017-08-28T10:28:19.535Z,416.25
2017-08-28T10:29:19.468Z,416.25
2017-08-28T10:30:20.414Z,416.25
2017-08-28T10:31:19.472Z,421.87
2017-08-28T10:32:19.499Z,421.87
2017-08-28T10:33:20.180Z,427.50
2017-08-28T10:34:20.181Z,427.50
2017-08-28T10:35:19.426Z,427.50
2017-08-28T10:36:19.454Z,433.12
2017-08-28T10:37:19.514Z,427.50
2017-08-28T10:38:19.570Z,427.50
2017-08-28T10:39:19.507Z,427.50
2017-08-28T10:40:19.464Z,427.50
2017-08-28T10:41:19.507Z,427.50
2017-08-28T10:42:19.466Z,427.50
2017-08-28T10:43:19.572Z,427.50
2017-08-28T10:44:20.198Z,427.50
2017-08-28T10:45:19.477Z,427.50
2017-08-28T10:46:19.476Z,427.50
2017-08-28T10:47:19.505Z,427.50
2017-08-28T10:48:19.537Z,427.50
2017-08-28T10:49:19.525Z,433.12
2017-08-28T10:50:19.393Z,433.12
2017-08-28T10:51:19.529Z,438.75
2017-08-28T10:52:20.217Z,444.37
2017-08-28T10:53:19.447Z,444.37
2017-08-28T10:54:19.500Z,450.00
2017-08-28T10:55:20.244Z,450.00
2017-08-28T10:56:19.486Z,450.00
2017-08-28T10:57:19.443Z,450.00
2017-08-28T10:58:20.224Z,455.62
2017-08-28T10:59:19.490Z,450.00
2017-08-28T11:00:19.545Z,450.00
2017-08-28T11:01:21.230Z,450.00
2017-08-28T11:02:19.457Z,450.00
2017-08-28T11:03:19.421Z,450.00
2017-08-28T11:04:19.972Z,455.62
2017-08-28T11:05:20.235Z,455.62
2017-08-28T11:06:19.434Z,455.62
2017-08-28T11:07:20.241Z,455.62
2017-08-28T11:08:19.560Z,461.25
2017-08-28T11:09:20.241Z,461.25
2017-08-28T11:10:19.566Z,461.25
2017-08-28T11:11:19.524Z,461.25
2017-08-28T11:12:20.332Z,466.87
2017-08-28T11:13:19.490Z,466.87
2017-08-28T11:14:20.257Z,472.50
2017-08-28T11:15:19.493Z,466.87
2017-08-28T11:16:19.395Z,466.87
2017-08-28T11:17:19.612Z,472.50
2017-08-28T11:18:20.473Z,472.50
2017-08-28T11:19:20.393Z,478.12
2017-08-28T11:20:19.471Z,483.75
2017-08-28T11:21:19.441Z,483.75
2017-08-28T11:22:19.552Z,489.37
2017-08-28T11:23:19.480Z,489.37
2017-08-28T11:24:20.277Z,495.00
2017-08-28T11:25:19.485Z,500.62
2017-08-28T11:26:20.426Z,517.50
2017-08-28T11:27:19.398Z,1434.37
2017-08-28T11:28:19.510Z,2913.75
2017-08-28T11:29:19.451Z,3054.37
2017-08-28T11:30:20.895Z,2986.87
2017-08-28T11:31:19.518Z,2992.50
2017-08-28T11:32:19.479Z,2953.12
2017-08-28T11:33:19.483Z,3026.25
2017-08-28T11:34:19.589Z,3110.62
2017-08-28T11:35:19.490Z,2964.37
2017-08-28T11:36:19.981Z,2998.12
2017-08-28T11:37:19.457Z,3200.62
2017-08-28T11:38:20.295Z,3245.62
2017-08-28T11:39:20.442Z,3245.62
2017-08-28T11:40:19.504Z,3543.75
2017-08-28T11:41:19.402Z,3470.62
2017-08-28T11:42:19.567Z,3189.37
2017-08-28T11:43:19.503Z,3391.87
2017-08-28T11:44:19.394Z,3571.87
2017-08-28T11:45:19.577Z,3420.00
2017-08-28T11:46:19.481Z,3307.50
2017-08-28T11:47:19.500Z,3420.00
2017-08-28T11:48:20.314Z,3403.12
2017-08-28T11:49:20.330Z,3273.75
2017-08-28T11:50:19.495Z,3279.37
2017-08-28T11:51:20.318Z,3256.87
2017-08-28T11:52:19.431Z,3234.37
2017-08-28T11:53:20.321Z,3195.00
2017-08-28T11:54:19.460Z,3217.50
2017-08-28T11:55:19.474Z,3183.75
2017-08-28T11:56:19.600Z,3161.25
2017-08-28T11:57:19.425Z,3279.37
2017-08-28T11:58:19.503Z,3296.25
2017-08-28T11:59:19.890Z,3195.00
2017-08-28T12:00:20.334Z,3060.00
2017-08-28T12:01:22.002Z,3015.00
2017-08-28T12:02:19.427Z,2958.75
2017-08-28T12:03:19.445Z,3065.62
2017-08-28T12:04:19.474Z,3127.50
2017-08-28T12:05:19.447Z,3144.37
2017-08-28T12:06:19.459Z,3138.75
2017-08-28T12:07:19.405Z,3228.75
2017-08-28T12:08:19.424Z,3138.75
2017-08-28T12:09:19.414Z,3133.12
2017-08-28T12:10:19.415Z,3161.25
2017-08-28T12:11:19.490Z,3150.00
2017-08-28T12:12:20.355Z,3150.00
2017-08-28T12:13:19.978Z,3251.25
2017-08-28T12:14:19.394Z,3172.50
2017-08-28T12:15:19.859Z,3155.62
2017-08-28T12:16:19.408Z,3240.00
2017-08-28T12:17:19.861Z,3189.37
2017-08-28T12:18:20.364Z,3178.12
2017-08-28T12:19:19.417Z,3116.25
2017-08-28T12:20:19.919Z,3009.37
2017-08-28T12:21:19.412Z,3020.62
2017-08-28T12:22:19.441Z,3105.00
2017-08-28T12:23:19.385Z,3088.12
2017-08-28T12:24:19.419Z,3060.00
2017-08-28T12:25:19.876Z,3172.50
2017-08-28T12:26:20.002Z,3015.00
2017-08-28T12:27:19.455Z,2998.12
2017-08-28T12:28:20.018Z,3065.62
2017-08-28T12:29:19.431Z,2958.75
2017-08-28T12:30:19.936Z,3133.12
2017-08-28T12:31:19.990Z,3138.75
2017-08-28T12:32:19.889Z,3020.62
2017-08-28T12:33:19.890Z,3133.12
2017-08-28T12:34:19.375Z,3240.00
2017-08-28T12:35:19.352Z,3155.62
2017-08-28T12:36:19.630Z,3234.37
2017-08-28T12:37:19.432Z,3307.50
2017-08-28T12:38:19.984Z,3228.75
2017-08-28T12:39:19.468Z,3144.37
2017-08-28T12:40:19.469Z,3166.87
2017-08-28T12:41:19.903Z,3133.12
2017-08-28T12:42:20.407Z,3138.75
2017-08-28T12:43:19.486Z,3172.50
2017-08-28T12:44:19.378Z,3088.12